sensor_id;sensor_type;location;lat;lon;timestamp;P1;durP1;ratioP1;P2;durP2;ratioP2
7957;SDS011;4024;52.172;5.378;2022-12-07T00:01:09;12.33;;;6.80;;
7957;SDS011;4024;52.172;5.378;2022-12-07T00:03:40;10.47;;;6.10;;
7957;SDS011;4024;52.172;5.378;2022-12-07T00:06:08;10.00;;;6.13;;
7957;SDS011;4024;52.172;5.378;2022-12-07T00:08:35;11.63;;;6.00;;
7957;SDS011;4024;52.172;5.378;2022-12-07T00:11:11;9.90;;;6.17;;
7957;SDS011;4024;52.172;5.378;2022-12-07T00:13:41;8.63;;;5.70;;
7957;SDS011;4024;52.172;5.378;2022-12-07T00:16:16;6.77;;;5.30;;
7957;SDS011;4024;52.172;5.378;2022-12-07T00:18:44;11.03;;;6.13;;
7957;SDS011;4024;52.172;5.378;2022-12-07T00:21:29;7.63;;;5.53;;
7957;SDS011;4024;52.172;5.378;2022-12-07T00:23:56;9.50;;;6.40;;
7957;SDS011;4024;52.172;5.378;2022-12-07T00:26:26;10.33;;;5.80;;
7957;SDS011;4024;52.172;5.378;2022-12-07T00:28:54;9.53;;;6.03;;
7957;SDS011;4024;52.172;5.378;2022-12-07T00:31:25;8.23;;;5.73;;
7957;SDS011;4024;52.172;5.378;2022-12-07T00:33:53;8.10;;;5.50;;
7957;SDS011;4024;52.172;5.378;2022-12-07T00:36:20;12.67;;;5.47;;
7957;SDS011;4024;52.172;5.378;2022-12-07T00:38:47;6.30;;;5.23;;
7957;SDS011;4024;52.172;5.378;2022-12-07T00:41:19;7.90;;;5.90;;
7957;SDS011;4024;52.172;5.378;2022-12-07T00:43:47;8.80;;;5.33;;
7957;SDS011;4024;52.172;5.378;2022-12-07T00:46:13;7.47;;;5.00;;
7957;SDS011;4024;52.172;5.378;2022-12-07T00:48:41;11.67;;;5.50;;
7957;SDS011;4024;52.172;5.378;2022-12-07T00:51:07;8.53;;;5.27;;
7957;SDS011;4024;52.172;5.378;2022-12-07T00:53:38;9.17;;;5.27;;
7957;SDS011;4024;52.172;5.378;2022-12-07T00:56:05;8.93;;;5.00;;
7957;SDS011;4024;52.172;5.378;2022-12-07T00:58:31;6.17;;;4.50;;
7957;SDS011;4024;52.172;5.378;2022-12-07T01:00:59;9.10;;;5.27;;
7957;SDS011;4024;52.172;5.378;2022-12-07T01:03:26;6.97;;;4.63;;
7957;SDS011;4024;52.172;5.378;2022-12-07T01:05:52;8.70;;;4.97;;
7957;SDS011;4024;52.172;5.378;2022-12-07T01:08:19;6.83;;;4.93;;
7957;SDS011;4024;52.172;5.378;2022-12-07T01:10:45;7.73;;;4.77;;
7957;SDS011;4024;52.172;5.378;2022-12-07T01:13:11;9.27;;;4.43;;
7957;SDS011;4024;52.172;5.378;2022-12-07T01:15:43;7.83;;;5.20;;
7957;SDS011;4024;52.172;5.378;2022-12-07T01:18:09;9.23;;;4.77;;
7957;SDS011;4024;52.172;5.378;2022-12-07T01:20:36;7.63;;;4.80;;
7957;SDS011;4024;52.172;5.378;2022-12-07T01:23:02;6.90;;;4.63;;
7957;SDS011;4024;52.172;5.378;2022-12-07T01:25:28;7.57;;;4.50;;
7957;SDS011;4024;52.172;5.378;2022-12-07T01:27:54;6.33;;;4.10;;
7957;SDS011;4024;52.172;5.378;2022-12-07T01:30:19;8.03;;;4.07;;
7957;SDS011;4024;52.172;5.378;2022-12-07T01:32:46;4.57;;;4.00;;
7957;SDS011;4024;52.172;5.378;2022-12-07T01:35:11;5.97;;;3.50;;
7957;SDS011;4024;52.172;5.378;2022-12-07T01:37:38;7.20;;;4.33;;
7957;SDS011;4024;52.172;5.378;2022-12-07T01:40:05;7.03;;;3.80;;
7957;SDS011;4024;52.172;5.378;2022-12-07T01:42:32;9.53;;;3.90;;
7957;SDS011;4024;52.172;5.378;2022-12-07T01:47:42;7.33;;;3.83;;
7957;SDS011;4024;52.172;5.378;2022-12-07T01:50:11;8.20;;;4.80;;
7957;SDS011;4024;52.172;5.378;2022-12-07T01:52:37;8.30;;;4.13;;
7957;SDS011;4024;52.172;5.378;2022-12-07T01:55:08;5.73;;;4.00;;
7957;SDS011;4024;52.172;5.378;2022-12-07T01:57:37;5.90;;;3.73;;
7957;SDS011;4024;52.172;5.378;2022-12-07T02:00:12;7.10;;;4.10;;
7957;SDS011;4024;52.172;5.378;2022-12-07T02:02:43;6.43;;;3.63;;
7957;SDS011;4024;52.172;5.378;2022-12-07T02:05:45;7.17;;;3.97;;
7957;SDS011;4024;52.172;5.378;2022-12-07T02:08:13;5.90;;;3.83;;
7957;SDS011;4024;52.172;5.378;2022-12-07T02:10:39;9.50;;;3.87;;
7957;SDS011;4024;52.172;5.378;2022-12-07T02:13:12;8.33;;;3.20;;
7957;SDS011;4024;52.172;5.378;2022-12-07T02:15:46;7.10;;;3.57;;
7957;SDS011;4024;52.172;5.378;2022-12-07T02:18:32;6.40;;;3.77;;
7957;SDS011;4024;52.172;5.378;2022-12-07T02:27:24;6.83;;;3.20;;
7957;SDS011;4024;52.172;5.378;2022-12-07T02:30:09;6.23;;;3.00;;
7957;SDS011;4024;52.172;5.378;2022-12-07T02:35:35;6.93;;;2.97;;
7957;SDS011;4024;52.172;5.378;2022-12-07T02:38:20;4.03;;;2.87;;
7957;SDS011;4024;52.172;5.378;2022-12-07T02:41:03;7.43;;;2.87;;
7957;SDS011;4024;52.172;5.378;2022-12-07T02:43:34;8.77;;;4.10;;
7957;SDS011;4024;52.172;5.378;2022-12-07T02:46:08;6.03;;;2.90;;
7957;SDS011;4024;52.172;5.378;2022-12-07T02:48:37;6.37;;;2.87;;
7957;SDS011;4024;52.172;5.378;2022-12-07T02:51:04;7.97;;;3.33;;
7957;SDS011;4024;52.172;5.378;2022-12-07T02:53:34;5.23;;;2.80;;
7957;SDS011;4024;52.172;5.378;2022-12-07T03:01:48;5.90;;;3.07;;
7957;SDS011;4024;52.172;5.378;2022-12-07T03:07:16;4.83;;;3.40;;
7957;SDS011;4024;52.172;5.378;2022-12-07T03:10:06;9.33;;;3.27;;
7957;SDS011;4024;52.172;5.378;2022-12-07T03:15:29;5.50;;;2.90;;
7957;SDS011;4024;52.172;5.378;2022-12-07T03:18:20;10.90;;;2.90;;
7957;SDS011;4024;52.172;5.378;2022-12-07T03:20:49;7.90;;;2.57;;
7957;SDS011;4024;52.172;5.378;2022-12-07T03:23:18;5.83;;;3.17;;
7957;SDS011;4024;52.172;5.378;2022-12-07T03:25:47;4.03;;;2.40;;
7957;SDS011;4024;52.172;5.378;2022-12-07T03:28:17;8.97;;;2.87;;
7957;SDS011;4024;52.172;5.378;2022-12-07T03:30:49;4.13;;;2.50;;
7957;SDS011;4024;52.172;5.378;2022-12-07T03:33:30;6.43;;;2.83;;
7957;SDS011;4024;52.172;5.378;2022-12-07T03:38:33;3.73;;;2.47;;
7957;SDS011;4024;52.172;5.378;2022-12-07T03:41:23;6.77;;;3.00;;
7957;SDS011;4024;52.172;5.378;2022-12-07T03:43:54;6.00;;;3.37;;
7957;SDS011;4024;52.172;5.378;2022-12-07T03:46:27;7.63;;;2.77;;
7957;SDS011;4024;52.172;5.378;2022-12-07T03:49:23;11.33;;;3.20;;
7957;SDS011;4024;52.172;5.378;2022-12-07T03:54:33;9.43;;;3.10;;
7957;SDS011;4024;52.172;5.378;2022-12-07T03:57:03;7.60;;;3.20;;
7957;SDS011;4024;52.172;5.378;2022-12-07T03:59:30;6.87;;;3.63;;
7957;SDS011;4024;52.172;5.378;2022-12-07T04:01:57;8.03;;;3.10;;
7957;SDS011;4024;52.172;5.378;2022-12-07T04:04:28;7.63;;;2.90;;
7957;SDS011;4024;52.172;5.378;2022-12-07T04:06:54;6.47;;;2.90;;
7957;SDS011;4024;52.172;5.378;2022-12-07T04:09:19;6.23;;;2.67;;
7957;SDS011;4024;52.172;5.378;2022-12-07T04:11:46;10.23;;;3.10;;
7957;SDS011;4024;52.172;5.378;2022-12-07T04:14:12;5.33;;;2.77;;
7957;SDS011;4024;52.172;5.378;2022-12-07T04:16:57;6.47;;;2.60;;
7957;SDS011;4024;52.172;5.378;2022-12-07T04:19:24;5.20;;;2.93;;
7957;SDS011;4024;52.172;5.378;2022-12-07T04:21:55;7.97;;;2.73;;
7957;SDS011;4024;52.172;5.378;2022-12-07T04:24:22;8.90;;;2.70;;
7957;SDS011;4024;52.172;5.378;2022-12-07T04:26:48;3.47;;;2.20;;
7957;SDS011;4024;52.172;5.378;2022-12-07T04:29:15;4.23;;;2.60;;
7957;SDS011;4024;52.172;5.378;2022-12-07T04:31:41;5.43;;;2.40;;
7957;SDS011;4024;52.172;5.378;2022-12-07T04:34:06;4.70;;;2.33;;
7957;SDS011;4024;52.172;5.378;2022-12-07T04:36:33;7.13;;;2.80;;
7957;SDS011;4024;52.172;5.378;2022-12-07T04:38:58;4.60;;;2.40;;
7957;SDS011;4024;52.172;5.378;2022-12-07T04:41:25;6.70;;;2.47;;
7957;SDS011;4024;52.172;5.378;2022-12-07T04:43:59;4.80;;;2.70;;
7957;SDS011;4024;52.172;5.378;2022-12-07T04:46:27;6.63;;;2.53;;
7957;SDS011;4024;52.172;5.378;2022-12-07T04:48:54;7.53;;;2.50;;
7957;SDS011;4024;52.172;5.378;2022-12-07T04:51:22;7.67;;;2.50;;
7957;SDS011;4024;52.172;5.378;2022-12-07T04:53:49;5.77;;;2.33;;
7957;SDS011;4024;52.172;5.378;2022-12-07T04:56:15;6.40;;;2.47;;
7957;SDS011;4024;52.172;5.378;2022-12-07T04:58:42;5.73;;;2.50;;
7957;SDS011;4024;52.172;5.378;2022-12-07T05:01:09;7.70;;;2.40;;
7957;SDS011;4024;52.172;5.378;2022-12-07T05:03:35;8.33;;;2.37;;
7957;SDS011;4024;52.172;5.378;2022-12-07T05:06:02;6.97;;;2.33;;
7957;SDS011;4024;52.172;5.378;2022-12-07T05:08:28;7.10;;;2.20;;
7957;SDS011;4024;52.172;5.378;2022-12-07T05:10:53;5.23;;;2.43;;
7957;SDS011;4024;52.172;5.378;2022-12-07T05:13:19;4.93;;;2.20;;
7957;SDS011;4024;52.172;5.378;2022-12-07T05:15:46;5.43;;;2.00;;
7957;SDS011;4024;52.172;5.378;2022-12-07T05:18:12;3.83;;;1.90;;
7957;SDS011;4024;52.172;5.378;2022-12-07T05:20:39;4.83;;;2.60;;
7957;SDS011;4024;52.172;5.378;2022-12-07T05:23:05;6.50;;;2.20;;
7957;SDS011;4024;52.172;5.378;2022-12-07T05:25:31;4.70;;;2.20;;
7957;SDS011;4024;52.172;5.378;2022-12-07T05:27:57;5.43;;;2.20;;
7957;SDS011;4024;52.172;5.378;2022-12-07T05:30:23;7.93;;;2.27;;
7957;SDS011;4024;52.172;5.378;2022-12-07T05:32:49;5.07;;;2.30;;
7957;SDS011;4024;52.172;5.378;2022-12-07T05:35:15;3.83;;;2.17;;
7957;SDS011;4024;52.172;5.378;2022-12-07T05:37:41;6.63;;;2.27;;
7957;SDS011;4024;52.172;5.378;2022-12-07T05:40:07;5.37;;;2.40;;
7957;SDS011;4024;52.172;5.378;2022-12-07T05:42:34;5.90;;;2.30;;
7957;SDS011;4024;52.172;5.378;2022-12-07T05:44:59;6.63;;;2.23;;
7957;SDS011;4024;52.172;5.378;2022-12-07T05:47:25;3.33;;;2.43;;
7957;SDS011;4024;52.172;5.378;2022-12-07T05:49:50;5.33;;;2.27;;
7957;SDS011;4024;52.172;5.378;2022-12-07T05:52:16;4.50;;;2.30;;
7957;SDS011;4024;52.172;5.378;2022-12-07T05:54:42;7.70;;;2.80;;
7957;SDS011;4024;52.172;5.378;2022-12-07T05:57:07;6.73;;;2.80;;
7957;SDS011;4024;52.172;5.378;2022-12-07T05:59:33;9.03;;;3.10;;
7957;SDS011;4024;52.172;5.378;2022-12-07T06:02:00;6.47;;;3.10;;
7957;SDS011;4024;52.172;5.378;2022-12-07T06:04:33;6.33;;;3.07;;
7957;SDS011;4024;52.172;5.378;2022-12-07T06:07:00;6.23;;;2.70;;
7957;SDS011;4024;52.172;5.378;2022-12-07T06:09:27;6.93;;;2.50;;
7957;SDS011;4024;52.172;5.378;2022-12-07T06:11:53;6.17;;;2.50;;
7957;SDS011;4024;52.172;5.378;2022-12-07T06:14:38;8.50;;;2.80;;
7957;SDS011;4024;52.172;5.378;2022-12-07T06:17:04;5.90;;;2.80;;
7957;SDS011;4024;52.172;5.378;2022-12-07T06:19:30;5.87;;;2.47;;
7957;SDS011;4024;52.172;5.378;2022-12-07T06:21:56;7.00;;;2.70;;
7957;SDS011;4024;52.172;5.378;2022-12-07T06:24:22;6.43;;;2.57;;
7957;SDS011;4024;52.172;5.378;2022-12-07T06:26:48;7.60;;;2.90;;
7957;SDS011;4024;52.172;5.378;2022-12-07T06:29:14;7.57;;;2.10;;
7957;SDS011;4024;52.172;5.378;2022-12-07T06:31:40;8.53;;;2.40;;
7957;SDS011;4024;52.172;5.378;2022-12-07T06:34:08;2.93;;;2.13;;
7957;SDS011;4024;52.172;5.378;2022-12-07T06:36:36;7.10;;;2.60;;
7957;SDS011;4024;52.172;5.378;2022-12-07T06:39:02;7.83;;;2.70;;
7957;SDS011;4024;52.172;5.378;2022-12-07T06:41:28;7.17;;;3.03;;
7957;SDS011;4024;52.172;5.378;2022-12-07T06:43:53;7.23;;;2.93;;
7957;SDS011;4024;52.172;5.378;2022-12-07T06:46:19;8.00;;;2.80;;
7957;SDS011;4024;52.172;5.378;2022-12-07T06:48:45;6.97;;;2.30;;
7957;SDS011;4024;52.172;5.378;2022-12-07T06:51:11;3.50;;;2.57;;
7957;SDS011;4024;52.172;5.378;2022-12-07T06:53:36;6.10;;;3.00;;
7957;SDS011;4024;52.172;5.378;2022-12-07T06:56:03;8.23;;;2.90;;
7957;SDS011;4024;52.172;5.378;2022-12-07T06:58:29;4.90;;;3.00;;
7957;SDS011;4024;52.172;5.378;2022-12-07T07:00:55;8.47;;;3.50;;
7957;SDS011;4024;52.172;5.378;2022-12-07T07:03:21;7.47;;;3.20;;
7957;SDS011;4024;52.172;5.378;2022-12-07T07:05:47;10.00;;;3.57;;
7957;SDS011;4024;52.172;5.378;2022-12-07T07:08:13;7.43;;;3.43;;
7957;SDS011;4024;52.172;5.378;2022-12-07T07:10:39;11.63;;;3.60;;
7957;SDS011;4024;52.172;5.378;2022-12-07T07:13:04;6.03;;;3.10;;
7957;SDS011;4024;52.172;5.378;2022-12-07T07:15:31;11.20;;;2.87;;
7957;SDS011;4024;52.172;5.378;2022-12-07T07:17:57;8.93;;;3.10;;
7957;SDS011;4024;52.172;5.378;2022-12-07T07:20:23;9.83;;;5.10;;
7957;SDS011;4024;52.172;5.378;2022-12-07T07:22:48;15.13;;;5.90;;
7957;SDS011;4024;52.172;5.378;2022-12-07T07:25:14;10.73;;;5.63;;
7957;SDS011;4024;52.172;5.378;2022-12-07T07:27:41;9.97;;;4.20;;
7957;SDS011;4024;52.172;5.378;2022-12-07T07:30:07;10.53;;;3.87;;
7957;SDS011;4024;52.172;5.378;2022-12-07T07:32:33;11.20;;;4.00;;
7957;SDS011;4024;52.172;5.378;2022-12-07T07:34:59;6.17;;;3.40;;
7957;SDS011;4024;52.172;5.378;2022-12-07T07:37:25;6.87;;;3.43;;
7957;SDS011;4024;52.172;5.378;2022-12-07T07:39:51;8.53;;;3.67;;
7957;SDS011;4024;52.172;5.378;2022-12-07T07:42:17;6.47;;;3.30;;
7957;SDS011;4024;52.172;5.378;2022-12-07T07:44:42;8.20;;;3.47;;
7957;SDS011;4024;52.172;5.378;2022-12-07T07:47:08;13.97;;;3.70;;
7957;SDS011;4024;52.172;5.378;2022-12-07T07:49:34;10.60;;;4.37;;
7957;SDS011;4024;52.172;5.378;2022-12-07T07:51:59;7.37;;;3.40;;
7957;SDS011;4024;52.172;5.378;2022-12-07T07:54:25;8.20;;;3.73;;
7957;SDS011;4024;52.172;5.378;2022-12-07T07:56:52;8.03;;;3.80;;
7957;SDS011;4024;52.172;5.378;2022-12-07T07:59:17;10.50;;;4.13;;
7957;SDS011;4024;52.172;5.378;2022-12-07T08:01:43;10.30;;;4.10;;
7957;SDS011;4024;52.172;5.378;2022-12-07T08:04:09;10.13;;;3.97;;
7957;SDS011;4024;52.172;5.378;2022-12-07T08:06:34;11.07;;;4.60;;
7957;SDS011;4024;52.172;5.378;2022-12-07T08:09:00;8.53;;;4.03;;
7957;SDS011;4024;52.172;5.378;2022-12-07T08:11:26;9.93;;;4.33;;
7957;SDS011;4024;52.172;5.378;2022-12-07T08:13:51;6.67;;;3.47;;
7957;SDS011;4024;52.172;5.378;2022-12-07T08:16:17;7.83;;;3.87;;
7957;SDS011;4024;52.172;5.378;2022-12-07T08:18:43;9.90;;;3.50;;
7957;SDS011;4024;52.172;5.378;2022-12-07T08:21:12;8.60;;;3.37;;
7957;SDS011;4024;52.172;5.378;2022-12-07T08:23:39;4.77;;;3.30;;
7957;SDS011;4024;52.172;5.378;2022-12-07T08:26:06;8.20;;;3.20;;
7957;SDS011;4024;52.172;5.378;2022-12-07T08:28:33;7.00;;;3.10;;
7957;SDS011;4024;52.172;5.378;2022-12-07T08:31:00;8.23;;;3.23;;
7957;SDS011;4024;52.172;5.378;2022-12-07T08:33:30;6.70;;;2.70;;
7957;SDS011;4024;52.172;5.378;2022-12-07T08:36:04;7.23;;;3.00;;
7957;SDS011;4024;52.172;5.378;2022-12-07T08:38:32;9.30;;;2.97;;
7957;SDS011;4024;52.172;5.378;2022-12-07T08:40:59;6.93;;;2.77;;
7957;SDS011;4024;52.172;5.378;2022-12-07T08:43:25;7.93;;;2.83;;
7957;SDS011;4024;52.172;5.378;2022-12-07T08:45:53;5.60;;;2.37;;
7957;SDS011;4024;52.172;5.378;2022-12-07T08:48:30;6.63;;;2.77;;
7957;SDS011;4024;52.172;5.378;2022-12-07T08:50:57;4.47;;;2.47;;
7957;SDS011;4024;52.172;5.378;2022-12-07T08:53:23;7.23;;;2.50;;
7957;SDS011;4024;52.172;5.378;2022-12-07T08:55:49;4.63;;;2.50;;
7957;SDS011;4024;52.172;5.378;2022-12-07T08:58:15;9.27;;;2.97;;
7957;SDS011;4024;52.172;5.378;2022-12-07T09:00:41;6.83;;;3.13;;
7957;SDS011;4024;52.172;5.378;2022-12-07T09:03:06;5.00;;;2.73;;
7957;SDS011;4024;52.172;5.378;2022-12-07T09:05:32;6.60;;;2.70;;
7957;SDS011;4024;52.172;5.378;2022-12-07T09:07:59;7.17;;;3.20;;
7957;SDS011;4024;52.172;5.378;2022-12-07T09:10:26;4.23;;;2.87;;
7957;SDS011;4024;52.172;5.378;2022-12-07T09:12:53;4.40;;;2.90;;
7957;SDS011;4024;52.172;5.378;2022-12-07T09:15:19;6.60;;;3.30;;
7957;SDS011;4024;52.172;5.378;2022-12-07T09:17:44;10.40;;;3.50;;
7957;SDS011;4024;52.172;5.378;2022-12-07T09:20:10;6.50;;;3.80;;
7957;SDS011;4024;52.172;5.378;2022-12-07T09:22:37;5.90;;;3.13;;
7957;SDS011;4024;52.172;5.378;2022-12-07T09:25:03;9.43;;;4.00;;
7957;SDS011;4024;52.172;5.378;2022-12-07T09:27:29;7.70;;;4.07;;
7957;SDS011;4024;52.172;5.378;2022-12-07T09:29:55;6.47;;;3.73;;
7957;SDS011;4024;52.172;5.378;2022-12-07T09:32:21;5.40;;;3.13;;
7957;SDS011;4024;52.172;5.378;2022-12-07T09:34:47;5.83;;;2.60;;
7957;SDS011;4024;52.172;5.378;2022-12-07T09:37:13;8.77;;;3.03;;
7957;SDS011;4024;52.172;5.378;2022-12-07T09:39:39;8.50;;;2.93;;
7957;SDS011;4024;52.172;5.378;2022-12-07T09:42:06;7.17;;;3.50;;
7957;SDS011;4024;52.172;5.378;2022-12-07T09:44:33;5.27;;;3.23;;
7957;SDS011;4024;52.172;5.378;2022-12-07T09:46:59;9.93;;;3.40;;
7957;SDS011;4024;52.172;5.378;2022-12-07T09:49:27;7.40;;;2.93;;
7957;SDS011;4024;52.172;5.378;2022-12-07T09:52:28;6.87;;;2.73;;
7957;SDS011;4024;52.172;5.378;2022-12-07T09:54:51;5.17;;;2.47;;
7957;SDS011;4024;52.172;5.378;2022-12-07T09:57:17;5.27;;;2.57;;
7957;SDS011;4024;52.172;5.378;2022-12-07T10:00:05;4.73;;;2.60;;
7957;SDS011;4024;52.172;5.378;2022-12-07T10:02:38;7.97;;;2.67;;
7957;SDS011;4024;52.172;5.378;2022-12-07T10:05:20;6.87;;;2.63;;
7957;SDS011;4024;52.172;5.378;2022-12-07T10:07:59;4.97;;;2.80;;
7957;SDS011;4024;52.172;5.378;2022-12-07T10:10:27;5.50;;;2.90;;
7957;SDS011;4024;52.172;5.378;2022-12-07T10:12:57;8.53;;;2.90;;
7957;SDS011;4024;52.172;5.378;2022-12-07T10:20:59;3.67;;;2.57;;
7957;SDS011;4024;52.172;5.378;2022-12-07T10:23:25;6.77;;;3.23;;
7957;SDS011;4024;52.172;5.378;2022-12-07T10:25:51;4.30;;;2.70;;
7957;SDS011;4024;52.172;5.378;2022-12-07T10:28:20;4.33;;;2.57;;
7957;SDS011;4024;52.172;5.378;2022-12-07T10:33:33;8.10;;;3.27;;
7957;SDS011;4024;52.172;5.378;2022-12-07T10:36:17;6.00;;;2.57;;
7957;SDS011;4024;52.172;5.378;2022-12-07T10:38:45;9.17;;;2.77;;
7957;SDS011;4024;52.172;5.378;2022-12-07T10:41:16;9.23;;;3.00;;
7957;SDS011;4024;52.172;5.378;2022-12-07T10:43:46;6.77;;;2.60;;
7957;SDS011;4024;52.172;5.378;2022-12-07T10:52:27;8.23;;;2.80;;
7957;SDS011;4024;52.172;5.378;2022-12-07T10:55:13;8.07;;;2.80;;
7957;SDS011;4024;52.172;5.378;2022-12-07T11:03:37;7.80;;;2.70;;
7957;SDS011;4024;52.172;5.378;2022-12-07T11:14:37;9.80;;;3.27;;
7957;SDS011;4024;52.172;5.378;2022-12-07T11:17:25;9.07;;;3.27;;
7957;SDS011;4024;52.172;5.378;2022-12-07T11:25:31;7.93;;;2.60;;
7957;SDS011;4024;52.172;5.378;2022-12-07T11:28:12;10.07;;;2.83;;
7957;SDS011;4024;52.172;5.378;2022-12-07T11:33:19;6.03;;;2.63;;
7957;SDS011;4024;52.172;5.378;2022-12-07T11:35:56;4.30;;;2.57;;
7957;SDS011;4024;52.172;5.378;2022-12-07T11:38:46;5.87;;;2.90;;
7957;SDS011;4024;52.172;5.378;2022-12-07T11:41:19;8.07;;;2.97;;
7957;SDS011;4024;52.172;5.378;2022-12-07T11:43:54;10.23;;;2.87;;
7957;SDS011;4024;52.172;5.378;2022-12-07T11:46:29;8.37;;;2.90;;
7957;SDS011;4024;52.172;5.378;2022-12-07T11:49:12;6.70;;;2.40;;
7957;SDS011;4024;52.172;5.378;2022-12-07T11:51:49;10.07;;;2.80;;
7957;SDS011;4024;52.172;5.378;2022-12-07T11:54:19;5.87;;;2.50;;
7957;SDS011;4024;52.172;5.378;2022-12-07T11:56:50;7.20;;;2.90;;
7957;SDS011;4024;52.172;5.378;2022-12-07T12:04:34;6.93;;;2.90;;
7957;SDS011;4024;52.172;5.378;2022-12-07T12:07:33;6.00;;;2.10;;
7957;SDS011;4024;52.172;5.378;2022-12-07T12:10:02;7.10;;;2.53;;
7957;SDS011;4024;52.172;5.378;2022-12-07T12:15:42;3.10;;;2.10;;
7957;SDS011;4024;52.172;5.378;2022-12-07T12:21:07;3.70;;;2.30;;
7957;SDS011;4024;52.172;5.378;2022-12-07T12:23:41;4.53;;;2.40;;
7957;SDS011;4024;52.172;5.378;2022-12-07T12:26:32;5.63;;;2.37;;
7957;SDS011;4024;52.172;5.378;2022-12-07T12:29:05;6.13;;;2.00;;
7957;SDS011;4024;52.172;5.378;2022-12-07T12:31:43;5.90;;;2.20;;
7957;SDS011;4024;52.172;5.378;2022-12-07T12:40:12;4.87;;;2.10;;
7957;SDS011;4024;52.172;5.378;2022-12-07T12:42:49;6.50;;;2.40;;
7957;SDS011;4024;52.172;5.378;2022-12-07T12:48:00;6.93;;;2.97;;
7957;SDS011;4024;52.172;5.378;2022-12-07T12:55:30;5.97;;;1.90;;
7957;SDS011;4024;52.172;5.378;2022-12-07T12:58:31;1.93;;;1.40;;
7957;SDS011;4024;52.172;5.378;2022-12-07T13:04:16;2.73;;;1.60;;
7957;SDS011;4024;52.172;5.378;2022-12-07T13:06:50;3.57;;;1.43;;
7957;SDS011;4024;52.172;5.378;2022-12-07T13:09:23;4.47;;;1.67;;
7957;SDS011;4024;52.172;5.378;2022-12-07T13:11:59;3.03;;;1.30;;
7957;SDS011;4024;52.172;5.378;2022-12-07T13:19:56;2.80;;;2.17;;
7957;SDS011;4024;52.172;5.378;2022-12-07T13:25:41;4.23;;;1.70;;
7957;SDS011;4024;52.172;5.378;2022-12-07T13:27:57;4.40;;;1.87;;
7957;SDS011;4024;52.172;5.378;2022-12-07T13:30:32;5.63;;;1.83;;
7957;SDS011;4024;52.172;5.378;2022-12-07T13:33:08;5.57;;;1.73;;
7957;SDS011;4024;52.172;5.378;2022-12-07T13:35:35;5.17;;;1.90;;
7957;SDS011;4024;52.172;5.378;2022-12-07T13:38:13;4.27;;;1.60;;
7957;SDS011;4024;52.172;5.378;2022-12-07T13:40:58;4.30;;;1.70;;
7957;SDS011;4024;52.172;5.378;2022-12-07T13:43:30;3.33;;;2.13;;
7957;SDS011;4024;52.172;5.378;2022-12-07T13:45:56;3.50;;;1.90;;
7957;SDS011;4024;52.172;5.378;2022-12-07T13:51:24;3.30;;;1.90;;
7957;SDS011;4024;52.172;5.378;2022-12-07T13:54:06;2.43;;;2.00;;
7957;SDS011;4024;52.172;5.378;2022-12-07T13:56:35;3.53;;;1.80;;
7957;SDS011;4024;52.172;5.378;2022-12-07T13:59:02;4.87;;;2.00;;
7957;SDS011;4024;52.172;5.378;2022-12-07T14:01:32;2.73;;;1.70;;
7957;SDS011;4024;52.172;5.378;2022-12-07T14:04:17;4.73;;;2.40;;
7957;SDS011;4024;52.172;5.378;2022-12-07T14:06:52;5.63;;;1.90;;
7957;SDS011;4024;52.172;5.378;2022-12-07T14:09:19;2.27;;;1.70;;
7957;SDS011;4024;52.172;5.378;2022-12-07T14:11:47;5.90;;;1.90;;
7957;SDS011;4024;52.172;5.378;2022-12-07T14:14:19;6.13;;;2.10;;
7957;SDS011;4024;52.172;5.378;2022-12-07T14:25:14;7.60;;;1.70;;
7957;SDS011;4024;52.172;5.378;2022-12-07T14:27:55;3.73;;;2.27;;
7957;SDS011;4024;52.172;5.378;2022-12-07T14:30:27;2.83;;;1.73;;
7957;SDS011;4024;52.172;5.378;2022-12-07T14:32:59;1.80;;;1.40;;
7957;SDS011;4024;52.172;5.378;2022-12-07T14:35:25;4.53;;;2.10;;
7957;SDS011;4024;52.172;5.378;2022-12-07T14:37:52;7.63;;;4.90;;
7957;SDS011;4024;52.172;5.378;2022-12-07T14:40:21;11.83;;;5.93;;
7957;SDS011;4024;52.172;5.378;2022-12-07T14:43:00;8.33;;;4.23;;
7957;SDS011;4024;52.172;5.378;2022-12-07T14:45:31;10.07;;;4.80;;
7957;SDS011;4024;52.172;5.378;2022-12-07T14:47:57;7.93;;;4.47;;
7957;SDS011;4024;52.172;5.378;2022-12-07T14:50:23;6.17;;;4.30;;
7957;SDS011;4024;52.172;5.378;2022-12-07T14:53:23;8.43;;;3.83;;
7957;SDS011;4024;52.172;5.378;2022-12-07T14:55:42;5.13;;;2.80;;
7957;SDS011;4024;52.172;5.378;2022-12-07T14:58:14;4.20;;;3.77;;
7957;SDS011;4024;52.172;5.378;2022-12-07T15:00:41;6.30;;;4.17;;
7957;SDS011;4024;52.172;5.378;2022-12-07T15:03:07;4.93;;;3.00;;
7957;SDS011;4024;52.172;5.378;2022-12-07T15:05:33;4.80;;;2.37;;
7957;SDS011;4024;52.172;5.378;2022-12-07T15:07:59;3.17;;;1.90;;
7957;SDS011;4024;52.172;5.378;2022-12-07T15:10:27;4.70;;;2.00;;
7957;SDS011;4024;52.172;5.378;2022-12-07T15:12:54;6.27;;;3.30;;
7957;SDS011;4024;52.172;5.378;2022-12-07T15:15:40;4.43;;;1.83;;
7957;SDS011;4024;52.172;5.378;2022-12-07T15:18:06;3.33;;;2.27;;
7957;SDS011;4024;52.172;5.378;2022-12-07T15:20:32;5.33;;;2.93;;
7957;SDS011;4024;52.172;5.378;2022-12-07T15:22:57;5.37;;;3.97;;
7957;SDS011;4024;52.172;5.378;2022-12-07T15:25:23;8.57;;;5.73;;
7957;SDS011;4024;52.172;5.378;2022-12-07T15:27:49;10.70;;;5.67;;
7957;SDS011;4024;52.172;5.378;2022-12-07T15:30:15;7.93;;;5.90;;
7957;SDS011;4024;52.172;5.378;2022-12-07T15:32:40;5.63;;;2.73;;
7957;SDS011;4024;52.172;5.378;2022-12-07T15:35:06;4.73;;;2.70;;
7957;SDS011;4024;52.172;5.378;2022-12-07T15:37:32;5.03;;;2.53;;
7957;SDS011;4024;52.172;5.378;2022-12-07T15:39:58;5.37;;;2.60;;
7957;SDS011;4024;52.172;5.378;2022-12-07T15:42:23;3.90;;;2.50;;
7957;SDS011;4024;52.172;5.378;2022-12-07T15:44:49;5.13;;;2.37;;
7957;SDS011;4024;52.172;5.378;2022-12-07T15:47:30;5.40;;;2.30;;
7957;SDS011;4024;52.172;5.378;2022-12-07T15:49:58;7.23;;;2.83;;
7957;SDS011;4024;52.172;5.378;2022-12-07T15:52:24;4.73;;;2.70;;
7957;SDS011;4024;52.172;5.378;2022-12-07T15:54:49;5.07;;;2.80;;
7957;SDS011;4024;52.172;5.378;2022-12-07T15:57:15;6.13;;;3.10;;
7957;SDS011;4024;52.172;5.378;2022-12-07T15:59:41;5.63;;;3.03;;
7957;SDS011;4024;52.172;5.378;2022-12-07T16:02:07;5.33;;;3.20;;
7957;SDS011;4024;52.172;5.378;2022-12-07T16:04:35;7.70;;;3.63;;
7957;SDS011;4024;52.172;5.378;2022-12-07T16:07:01;5.90;;;3.67;;
7957;SDS011;4024;52.172;5.378;2022-12-07T16:09:27;10.17;;;5.23;;
7957;SDS011;4024;52.172;5.378;2022-12-07T16:11:52;7.97;;;5.60;;
7957;SDS011;4024;52.172;5.378;2022-12-07T16:14:19;14.63;;;8.03;;
7957;SDS011;4024;52.172;5.378;2022-12-07T16:16:44;9.17;;;7.20;;
7957;SDS011;4024;52.172;5.378;2022-12-07T16:19:11;13.83;;;7.70;;
7957;SDS011;4024;52.172;5.378;2022-12-07T16:21:36;12.43;;;8.43;;
7957;SDS011;4024;52.172;5.378;2022-12-07T16:24:02;15.70;;;8.10;;
7957;SDS011;4024;52.172;5.378;2022-12-07T16:26:30;13.20;;;7.50;;
7957;SDS011;4024;52.172;5.378;2022-12-07T16:28:56;14.23;;;7.77;;
7957;SDS011;4024;52.172;5.378;2022-12-07T16:31:22;11.10;;;6.00;;
7957;SDS011;4024;52.172;5.378;2022-12-07T16:33:50;11.10;;;6.33;;
7957;SDS011;4024;52.172;5.378;2022-12-07T16:36:18;8.70;;;6.23;;
7957;SDS011;4024;52.172;5.378;2022-12-07T16:38:46;11.73;;;7.20;;
7957;SDS011;4024;52.172;5.378;2022-12-07T16:41:12;11.27;;;7.37;;
7957;SDS011;4024;52.172;5.378;2022-12-07T16:43:38;11.70;;;6.37;;
7957;SDS011;4024;52.172;5.378;2022-12-07T16:46:04;12.03;;;5.90;;
7957;SDS011;4024;52.172;5.378;2022-12-07T16:48:30;11.50;;;7.33;;
7957;SDS011;4024;52.172;5.378;2022-12-07T16:50:56;11.97;;;7.17;;
7957;SDS011;4024;52.172;5.378;2022-12-07T16:53:22;11.40;;;7.37;;
7957;SDS011;4024;52.172;5.378;2022-12-07T16:55:49;11.70;;;6.37;;
7957;SDS011;4024;52.172;5.378;2022-12-07T16:58:15;13.33;;;6.43;;
7957;SDS011;4024;52.172;5.378;2022-12-07T17:00:43;12.60;;;7.53;;
7957;SDS011;4024;52.172;5.378;2022-12-07T17:03:09;9.87;;;5.20;;
7957;SDS011;4024;52.172;5.378;2022-12-07T17:05:39;7.17;;;4.00;;
7957;SDS011;4024;52.172;5.378;2022-12-07T17:08:06;6.73;;;3.73;;
7957;SDS011;4024;52.172;5.378;2022-12-07T17:10:33;5.17;;;3.60;;
7957;SDS011;4024;52.172;5.378;2022-12-07T17:13:00;9.13;;;3.80;;
7957;SDS011;4024;52.172;5.378;2022-12-07T17:15:27;7.93;;;3.90;;
7957;SDS011;4024;52.172;5.378;2022-12-07T17:20:21;5.23;;;3.27;;
7957;SDS011;4024;52.172;5.378;2022-12-07T17:22:48;11.27;;;5.23;;